Napierville, Canada
Current Conditions -  °F | °C
As of 2:35 AM on Sunday 23 Nov 2014 (Local Time) from KFSO Reporting Station
Overcast Overcast  
Wind Chill: 35°   Ceiling: 2300
Heat Index: 39°   Visibility: 10mi
Dew Point: 31°   Wind: 6mph
Humidity: 71%   Direction: 190°S
Pressure: 29.95"   Gusts: NA
Location:  45.18°N, 73.4°W
Report Text: KFSO 230735Z AUTO 19005KT 10SM OVC023 04/M01 A2995 RMK AO2 T00401008
Loading
Personal Weather Stations






























Interactive Weather Map New forecast layout! Learn more

10-Day Weather Forecast

Advertisements
Track Severe Weather on mobile